sensor_id;sensor_type;location;lat;lon;timestamp;P1;durP1;ratioP1;P2;durP2;ratioP2
7917;SDS011;4004;42.624;23.386;2024-02-15T00:02:10;10.47;;;6.70;;
7917;SDS011;4004;42.624;23.386;2024-02-15T00:04:37;8.87;;;6.90;;
7917;SDS011;4004;42.624;23.386;2024-02-15T00:07:05;7.83;;;6.87;;
7917;SDS011;4004;42.624;23.386;2024-02-15T00:09:32;9.10;;;6.60;;
7917;SDS011;4004;42.624;23.386;2024-02-15T00:12:00;10.27;;;6.83;;
7917;SDS011;4004;42.624;23.386;2024-02-15T00:14:27;8.10;;;6.70;;
7917;SDS011;4004;42.624;23.386;2024-02-15T00:16:54;9.00;;;7.10;;
7917;SDS011;4004;42.624;23.386;2024-02-15T00:19:21;7.13;;;6.43;;
7917;SDS011;4004;42.624;23.386;2024-02-15T00:21:49;8.17;;;6.47;;
7917;SDS011;4004;42.624;23.386;2024-02-15T00:24:17;11.03;;;6.43;;
7917;SDS011;4004;42.624;23.386;2024-02-15T00:26:44;9.73;;;6.70;;
7917;SDS011;4004;42.624;23.386;2024-02-15T00:29:11;7.93;;;6.43;;
7917;SDS011;4004;42.624;23.386;2024-02-15T00:31:38;8.00;;;6.53;;
7917;SDS011;4004;42.624;23.386;2024-02-15T00:34:05;8.47;;;6.20;;
7917;SDS011;4004;42.624;23.386;2024-02-15T00:36:33;7.87;;;6.23;;
7917;SDS011;4004;42.624;23.386;2024-02-15T00:39:00;7.83;;;6.03;;
7917;SDS011;4004;42.624;23.386;2024-02-15T00:41:31;9.90;;;6.63;;
7917;SDS011;4004;42.624;23.386;2024-02-15T00:43:58;8.00;;;5.90;;
7917;SDS011;4004;42.624;23.386;2024-02-15T00:46:25;12.03;;;6.70;;
7917;SDS011;4004;42.624;23.386;2024-02-15T00:48:54;8.53;;;6.43;;
7917;SDS011;4004;42.624;23.386;2024-02-15T00:51:23;8.83;;;6.07;;
7917;SDS011;4004;42.624;23.386;2024-02-15T00:53:49;8.53;;;6.77;;
7917;SDS011;4004;42.624;23.386;2024-02-15T00:56:16;8.43;;;6.90;;
7917;SDS011;4004;42.624;23.386;2024-02-15T00:58:45;7.67;;;6.60;;
7917;SDS011;4004;42.624;23.386;2024-02-15T01:01:12;6.90;;;6.13;;
7917;SDS011;4004;42.624;23.386;2024-02-15T01:03:39;8.20;;;6.30;;
7917;SDS011;4004;42.624;23.386;2024-02-15T01:06:05;7.90;;;6.70;;
7917;SDS011;4004;42.624;23.386;2024-02-15T01:08:33;8.77;;;6.97;;
7917;SDS011;4004;42.624;23.386;2024-02-15T01:11:01;7.47;;;5.83;;
7917;SDS011;4004;42.624;23.386;2024-02-15T01:13:28;10.27;;;7.37;;
7917;SDS011;4004;42.624;23.386;2024-02-15T01:15:56;8.57;;;6.47;;
7917;SDS011;4004;42.624;23.386;2024-02-15T01:18:23;8.40;;;6.50;;
7917;SDS011;4004;42.624;23.386;2024-02-15T01:20:50;10.70;;;6.73;;
7917;SDS011;4004;42.624;23.386;2024-02-15T01:23:17;8.17;;;6.00;;
7917;SDS011;4004;42.624;23.386;2024-02-15T01:25:45;8.90;;;6.93;;
7917;SDS011;4004;42.624;23.386;2024-02-15T01:28:12;7.93;;;6.80;;
7917;SDS011;4004;42.624;23.386;2024-02-15T01:30:39;8.63;;;6.40;;
7917;SDS011;4004;42.624;23.386;2024-02-15T01:33:10;9.87;;;7.03;;
7917;SDS011;4004;42.624;23.386;2024-02-15T01:35:37;7.43;;;5.87;;
7917;SDS011;4004;42.624;23.386;2024-02-15T01:38:04;8.13;;;6.67;;
7917;SDS011;4004;42.624;23.386;2024-02-15T01:40:32;7.23;;;6.43;;
7917;SDS011;4004;42.624;23.386;2024-02-15T01:43:00;7.53;;;6.30;;
7917;SDS011;4004;42.624;23.386;2024-02-15T01:45:27;7.57;;;6.77;;
7917;SDS011;4004;42.624;23.386;2024-02-15T01:47:54;7.27;;;6.30;;
7917;SDS011;4004;42.624;23.386;2024-02-15T01:50:23;7.87;;;5.97;;
7917;SDS011;4004;42.624;23.386;2024-02-15T01:52:51;8.37;;;7.27;;
7917;SDS011;4004;42.624;23.386;2024-02-15T01:55:22;8.07;;;6.90;;
7917;SDS011;4004;42.624;23.386;2024-02-15T01:57:49;7.67;;;6.40;;
7917;SDS011;4004;42.624;23.386;2024-02-15T02:00:17;7.20;;;6.37;;
7917;SDS011;4004;42.624;23.386;2024-02-15T02:02:45;10.00;;;6.63;;
7917;SDS011;4004;42.624;23.386;2024-02-15T02:05:12;10.27;;;6.87;;
7917;SDS011;4004;42.624;23.386;2024-02-15T02:07:40;9.93;;;6.80;;
7917;SDS011;4004;42.624;23.386;2024-02-15T02:10:08;11.17;;;7.00;;
7917;SDS011;4004;42.624;23.386;2024-02-15T02:12:36;7.73;;;6.57;;
7917;SDS011;4004;42.624;23.386;2024-02-15T02:15:05;11.87;;;6.73;;
7917;SDS011;4004;42.624;23.386;2024-02-15T02:17:32;8.40;;;6.53;;
7917;SDS011;4004;42.624;23.386;2024-02-15T02:20:00;8.57;;;6.60;;
7917;SDS011;4004;42.624;23.386;2024-02-15T02:22:33;8.27;;;6.83;;
7917;SDS011;4004;42.624;23.386;2024-02-15T02:25:03;8.97;;;7.20;;
7917;SDS011;4004;42.624;23.386;2024-02-15T02:27:33;7.13;;;6.43;;
7917;SDS011;4004;42.624;23.386;2024-02-15T02:30:02;9.50;;;7.10;;
7917;SDS011;4004;42.624;23.386;2024-02-15T02:32:32;8.60;;;6.80;;
7917;SDS011;4004;42.624;23.386;2024-02-15T02:35:01;7.30;;;6.50;;
7917;SDS011;4004;42.624;23.386;2024-02-15T02:37:28;8.93;;;7.00;;
7917;SDS011;4004;42.624;23.386;2024-02-15T02:39:55;12.37;;;7.03;;
7917;SDS011;4004;42.624;23.386;2024-02-15T02:42:23;9.43;;;7.57;;
7917;SDS011;4004;42.624;23.386;2024-02-15T02:44:50;8.33;;;6.43;;
7917;SDS011;4004;42.624;23.386;2024-02-15T02:47:17;9.47;;;6.83;;
7917;SDS011;4004;42.624;23.386;2024-02-15T02:49:44;14.47;;;7.80;;
7917;SDS011;4004;42.624;23.386;2024-02-15T02:52:11;8.73;;;6.87;;
7917;SDS011;4004;42.624;23.386;2024-02-15T02:54:38;7.80;;;6.50;;
7917;SDS011;4004;42.624;23.386;2024-02-15T02:57:05;15.03;;;7.57;;
7917;SDS011;4004;42.624;23.386;2024-02-15T02:59:34;11.00;;;7.13;;
7917;SDS011;4004;42.624;23.386;2024-02-15T03:02:05;9.27;;;7.90;;
7917;SDS011;4004;42.624;23.386;2024-02-15T03:04:33;12.50;;;7.23;;
7917;SDS011;4004;42.624;23.386;2024-02-15T03:07:00;9.50;;;7.40;;
7917;SDS011;4004;42.624;23.386;2024-02-15T03:09:27;7.50;;;6.27;;
7917;SDS011;4004;42.624;23.386;2024-02-15T03:11:54;10.03;;;7.30;;
7917;SDS011;4004;42.624;23.386;2024-02-15T03:14:22;8.47;;;7.57;;
7917;SDS011;4004;42.624;23.386;2024-02-15T03:16:51;12.20;;;7.53;;
7917;SDS011;4004;42.624;23.386;2024-02-15T03:19:20;9.60;;;7.83;;
7917;SDS011;4004;42.624;23.386;2024-02-15T03:21:48;9.70;;;7.97;;
7917;SDS011;4004;42.624;23.386;2024-02-15T03:24:15;11.67;;;7.63;;
7917;SDS011;4004;42.624;23.386;2024-02-15T03:26:42;11.77;;;8.00;;
7917;SDS011;4004;42.624;23.386;2024-02-15T03:29:09;10.00;;;8.27;;
7917;SDS011;4004;42.624;23.386;2024-02-15T03:31:36;11.23;;;8.20;;
7917;SDS011;4004;42.624;23.386;2024-02-15T03:34:05;15.10;;;8.57;;
7917;SDS011;4004;42.624;23.386;2024-02-15T03:36:32;11.53;;;7.40;;
7917;SDS011;4004;42.624;23.386;2024-02-15T03:38:58;11.80;;;7.40;;
7917;SDS011;4004;42.624;23.386;2024-02-15T03:41:27;15.40;;;8.27;;
7917;SDS011;4004;42.624;23.386;2024-02-15T03:43:56;14.10;;;8.97;;
7917;SDS011;4004;42.624;23.386;2024-02-15T03:46:24;9.07;;;6.90;;
7917;SDS011;4004;42.624;23.386;2024-02-15T03:48:51;9.47;;;8.07;;
7917;SDS011;4004;42.624;23.386;2024-02-15T03:51:20;9.27;;;8.17;;
7917;SDS011;4004;42.624;23.386;2024-02-15T03:53:49;10.90;;;8.27;;
7917;SDS011;4004;42.624;23.386;2024-02-15T03:56:17;10.57;;;8.43;;
7917;SDS011;4004;42.624;23.386;2024-02-15T03:58:44;9.63;;;8.00;;
7917;SDS011;4004;42.624;23.386;2024-02-15T04:01:11;10.73;;;7.70;;
7917;SDS011;4004;42.624;23.386;2024-02-15T04:03:40;11.53;;;8.53;;
7917;SDS011;4004;42.624;23.386;2024-02-15T04:06:07;17.70;;;9.00;;
7917;SDS011;4004;42.624;23.386;2024-02-15T04:08:35;10.13;;;8.33;;
7917;SDS011;4004;42.624;23.386;2024-02-15T04:11:04;13.83;;;8.27;;
7917;SDS011;4004;42.624;23.386;2024-02-15T04:13:32;12.23;;;8.00;;
7917;SDS011;4004;42.624;23.386;2024-02-15T04:15:59;9.20;;;7.90;;
7917;SDS011;4004;42.624;23.386;2024-02-15T04:18:26;12.37;;;8.07;;
7917;SDS011;4004;42.624;23.386;2024-02-15T04:20:57;11.13;;;7.90;;
7917;SDS011;4004;42.624;23.386;2024-02-15T04:23:24;14.57;;;8.40;;
7917;SDS011;4004;42.624;23.386;2024-02-15T04:25:53;9.87;;;7.90;;
7917;SDS011;4004;42.624;23.386;2024-02-15T04:28:19;9.67;;;8.17;;
7917;SDS011;4004;42.624;23.386;2024-02-15T04:30:46;11.13;;;8.43;;
7917;SDS011;4004;42.624;23.386;2024-02-15T04:33:14;13.27;;;8.30;;
7917;SDS011;4004;42.624;23.386;2024-02-15T04:35:41;9.50;;;7.70;;
7917;SDS011;4004;42.624;23.386;2024-02-15T04:38:09;11.00;;;8.07;;
7917;SDS011;4004;42.624;23.386;2024-02-15T04:40:36;13.03;;;8.30;;
7917;SDS011;4004;42.624;23.386;2024-02-15T04:43:06;11.30;;;8.33;;
7917;SDS011;4004;42.624;23.386;2024-02-15T04:45:33;9.80;;;8.63;;
7917;SDS011;4004;42.624;23.386;2024-02-15T04:48:00;12.47;;;7.77;;
7917;SDS011;4004;42.624;23.386;2024-02-15T04:50:28;10.13;;;8.53;;
7917;SDS011;4004;42.624;23.386;2024-02-15T04:52:55;12.23;;;8.93;;
7917;SDS011;4004;42.624;23.386;2024-02-15T04:55:22;15.07;;;8.33;;
7917;SDS011;4004;42.624;23.386;2024-02-15T04:57:51;16.83;;;9.00;;
7917;SDS011;4004;42.624;23.386;2024-02-15T05:00:21;12.23;;;8.13;;
7917;SDS011;4004;42.624;23.386;2024-02-15T05:02:50;15.70;;;8.87;;
7917;SDS011;4004;42.624;23.386;2024-02-15T05:05:18;15.77;;;8.77;;
7917;SDS011;4004;42.624;23.386;2024-02-15T05:07:46;11.00;;;8.03;;
7917;SDS011;4004;42.624;23.386;2024-02-15T05:10:15;12.73;;;8.33;;
7917;SDS011;4004;42.624;23.386;2024-02-15T05:12:42;9.40;;;7.97;;
7917;SDS011;4004;42.624;23.386;2024-02-15T05:15:09;14.13;;;9.10;;
7917;SDS011;4004;42.624;23.386;2024-02-15T05:17:39;11.40;;;8.70;;
7917;SDS011;4004;42.624;23.386;2024-02-15T05:20:07;12.13;;;8.27;;
7917;SDS011;4004;42.624;23.386;2024-02-15T05:22:38;12.27;;;8.47;;
7917;SDS011;4004;42.624;23.386;2024-02-15T05:25:09;18.07;;;9.37;;
7917;SDS011;4004;42.624;23.386;2024-02-15T05:27:37;11.40;;;8.70;;
7917;SDS011;4004;42.624;23.386;2024-02-15T05:30:05;11.97;;;8.20;;
7917;SDS011;4004;42.624;23.386;2024-02-15T05:32:33;10.73;;;7.80;;
7917;SDS011;4004;42.624;23.386;2024-02-15T05:35:08;14.50;;;9.70;;
7917;SDS011;4004;42.624;23.386;2024-02-15T05:37:35;11.20;;;8.80;;
7917;SDS011;4004;42.624;23.386;2024-02-15T05:40:02;11.50;;;8.20;;
7917;SDS011;4004;42.624;23.386;2024-02-15T05:42:29;14.43;;;8.83;;
7917;SDS011;4004;42.624;23.386;2024-02-15T05:44:57;13.40;;;9.03;;
7917;SDS011;4004;42.624;23.386;2024-02-15T05:47:58;15.57;;;8.27;;
7917;SDS011;4004;42.624;23.386;2024-02-15T05:50:26;15.13;;;8.50;;
7917;SDS011;4004;42.624;23.386;2024-02-15T05:52:55;16.27;;;8.37;;
7917;SDS011;4004;42.624;23.386;2024-02-15T05:55:23;14.27;;;8.37;;
7917;SDS011;4004;42.624;23.386;2024-02-15T05:57:51;12.17;;;8.20;;
7917;SDS011;4004;42.624;23.386;2024-02-15T06:00:19;10.40;;;7.80;;
7917;SDS011;4004;42.624;23.386;2024-02-15T06:02:47;24.67;;;9.33;;
7917;SDS011;4004;42.624;23.386;2024-02-15T06:05:14;11.17;;;8.53;;
7917;SDS011;4004;42.624;23.386;2024-02-15T06:07:44;12.43;;;7.97;;
7917;SDS011;4004;42.624;23.386;2024-02-15T06:10:12;11.37;;;7.87;;
7917;SDS011;4004;42.624;23.386;2024-02-15T06:12:40;15.43;;;8.13;;
7917;SDS011;4004;42.624;23.386;2024-02-15T06:15:07;11.70;;;7.60;;
7917;SDS011;4004;42.624;23.386;2024-02-15T06:17:40;13.43;;;7.70;;
7917;SDS011;4004;42.624;23.386;2024-02-15T06:20:09;12.43;;;8.60;;
7917;SDS011;4004;42.624;23.386;2024-02-15T06:22:38;17.70;;;8.70;;
7917;SDS011;4004;42.624;23.386;2024-02-15T06:25:07;19.93;;;9.37;;
7917;SDS011;4004;42.624;23.386;2024-02-15T06:27:35;13.37;;;8.10;;
7917;SDS011;4004;42.624;23.386;2024-02-15T06:30:06;11.47;;;8.83;;
7917;SDS011;4004;42.624;23.386;2024-02-15T06:32:51;14.67;;;8.23;;
7917;SDS011;4004;42.624;23.386;2024-02-15T06:35:35;13.77;;;8.97;;
7917;SDS011;4004;42.624;23.386;2024-02-15T06:38:20;12.17;;;8.63;;
7917;SDS011;4004;42.624;23.386;2024-02-15T06:41:06;16.30;;;8.40;;
7917;SDS011;4004;42.624;23.386;2024-02-15T06:43:33;11.87;;;8.57;;
7917;SDS011;4004;42.624;23.386;2024-02-15T06:46:00;11.43;;;8.83;;
7917;SDS011;4004;42.624;23.386;2024-02-15T06:48:27;11.83;;;8.20;;
7917;SDS011;4004;42.624;23.386;2024-02-15T06:50:55;11.07;;;8.43;;
7917;SDS011;4004;42.624;23.386;2024-02-15T06:53:22;9.37;;;7.83;;
7917;SDS011;4004;42.624;23.386;2024-02-15T06:55:49;13.93;;;8.47;;
7917;SDS011;4004;42.624;23.386;2024-02-15T06:58:17;15.40;;;8.97;;
7917;SDS011;4004;42.624;23.386;2024-02-15T07:00:45;20.60;;;8.60;;
7917;SDS011;4004;42.624;23.386;2024-02-15T07:03:14;12.23;;;7.47;;
7917;SDS011;4004;42.624;23.386;2024-02-15T07:05:42;13.80;;;8.80;;
7917;SDS011;4004;42.624;23.386;2024-02-15T07:08:08;19.23;;;8.77;;
7917;SDS011;4004;42.624;23.386;2024-02-15T07:10:37;15.83;;;8.27;;
7917;SDS011;4004;42.624;23.386;2024-02-15T07:13:05;10.47;;;7.43;;
7917;SDS011;4004;42.624;23.386;2024-02-15T07:15:33;16.13;;;9.13;;
7917;SDS011;4004;42.624;23.386;2024-02-15T07:18:03;13.27;;;7.73;;
7917;SDS011;4004;42.624;23.386;2024-02-15T07:20:31;14.97;;;8.40;;
7917;SDS011;4004;42.624;23.386;2024-02-15T07:22:58;14.63;;;8.70;;
7917;SDS011;4004;42.624;23.386;2024-02-15T07:25:25;15.00;;;8.37;;
7917;SDS011;4004;42.624;23.386;2024-02-15T07:27:52;12.40;;;8.20;;
7917;SDS011;4004;42.624;23.386;2024-02-15T07:30:19;11.27;;;7.63;;
7917;SDS011;4004;42.624;23.386;2024-02-15T07:32:49;10.80;;;7.90;;
7917;SDS011;4004;42.624;23.386;2024-02-15T07:35:16;11.67;;;6.90;;
7917;SDS011;4004;42.624;23.386;2024-02-15T07:37:52;21.83;;;7.77;;
7917;SDS011;4004;42.624;23.386;2024-02-15T07:40:22;10.37;;;7.13;;
7917;SDS011;4004;42.624;23.386;2024-02-15T07:42:53;14.87;;;7.40;;
7917;SDS011;4004;42.624;23.386;2024-02-15T07:45:21;16.10;;;7.67;;
7917;SDS011;4004;42.624;23.386;2024-02-15T07:47:49;8.77;;;6.83;;
7917;SDS011;4004;42.624;23.386;2024-02-15T07:50:17;14.93;;;7.33;;
7917;SDS011;4004;42.624;23.386;2024-02-15T07:52:48;12.57;;;7.00;;
7917;SDS011;4004;42.624;23.386;2024-02-15T07:55:16;16.97;;;7.87;;
7917;SDS011;4004;42.624;23.386;2024-02-15T07:57:43;12.77;;;8.07;;
7917;SDS011;4004;42.624;23.386;2024-02-15T08:00:12;25.87;;;8.43;;
7917;SDS011;4004;42.624;23.386;2024-02-15T08:02:41;15.00;;;7.77;;
7917;SDS011;4004;42.624;23.386;2024-02-15T08:05:10;17.13;;;7.40;;
7917;SDS011;4004;42.624;23.386;2024-02-15T08:07:41;13.57;;;7.27;;
7917;SDS011;4004;42.624;23.386;2024-02-15T08:10:09;12.60;;;7.60;;
7917;SDS011;4004;42.624;23.386;2024-02-15T08:12:39;12.37;;;8.67;;
7917;SDS011;4004;42.624;23.386;2024-02-15T08:15:08;14.00;;;8.17;;
7917;SDS011;4004;42.624;23.386;2024-02-15T08:17:37;11.87;;;7.77;;
7917;SDS011;4004;42.624;23.386;2024-02-15T08:20:08;14.83;;;8.03;;
7917;SDS011;4004;42.624;23.386;2024-02-15T08:22:38;11.03;;;8.40;;
7917;SDS011;4004;42.624;23.386;2024-02-15T08:25:06;12.23;;;7.70;;
7917;SDS011;4004;42.624;23.386;2024-02-15T08:27:36;19.20;;;8.03;;
7917;SDS011;4004;42.624;23.386;2024-02-15T08:30:08;14.83;;;7.80;;
7917;SDS011;4004;42.624;23.386;2024-02-15T08:32:36;10.03;;;7.23;;
7917;SDS011;4004;42.624;23.386;2024-02-15T08:35:04;14.87;;;7.33;;
7917;SDS011;4004;42.624;23.386;2024-02-15T08:37:35;15.60;;;8.33;;
7917;SDS011;4004;42.624;23.386;2024-02-15T08:40:03;13.87;;;8.20;;
7917;SDS011;4004;42.624;23.386;2024-02-15T08:42:35;18.37;;;8.33;;
7917;SDS011;4004;42.624;23.386;2024-02-15T08:45:03;9.77;;;7.53;;
7917;SDS011;4004;42.624;23.386;2024-02-15T08:47:34;15.63;;;8.17;;
7917;SDS011;4004;42.624;23.386;2024-02-15T08:50:03;8.20;;;6.93;;
7917;SDS011;4004;42.624;23.386;2024-02-15T08:52:30;31.63;;;9.13;;
7917;SDS011;4004;42.624;23.386;2024-02-15T08:54:58;15.90;;;8.03;;
7917;SDS011;4004;42.624;23.386;2024-02-15T08:57:26;16.93;;;7.57;;
7917;SDS011;4004;42.624;23.386;2024-02-15T08:59:53;8.77;;;7.87;;
7917;SDS011;4004;42.624;23.386;2024-02-15T09:02:20;8.60;;;7.70;;
7917;SDS011;4004;42.624;23.386;2024-02-15T09:04:47;13.90;;;7.53;;
7917;SDS011;4004;42.624;23.386;2024-02-15T09:07:14;11.37;;;6.90;;
7917;SDS011;4004;42.624;23.386;2024-02-15T09:09:40;10.10;;;7.30;;
7917;SDS011;4004;42.624;23.386;2024-02-15T09:12:09;14.57;;;7.70;;
7917;SDS011;4004;42.624;23.386;2024-02-15T09:14:37;19.20;;;7.80;;
7917;SDS011;4004;42.624;23.386;2024-02-15T09:17:04;13.53;;;7.47;;
7917;SDS011;4004;42.624;23.386;2024-02-15T09:19:33;12.67;;;8.23;;
7917;SDS011;4004;42.624;23.386;2024-02-15T09:22:00;16.30;;;8.73;;
7917;SDS011;4004;42.624;23.386;2024-02-15T09:24:26;10.97;;;7.50;;
7917;SDS011;4004;42.624;23.386;2024-02-15T09:26:54;7.90;;;7.13;;
7917;SDS011;4004;42.624;23.386;2024-02-15T09:29:21;14.30;;;8.37;;
7917;SDS011;4004;42.624;23.386;2024-02-15T09:31:49;22.30;;;8.90;;
7917;SDS011;4004;42.624;23.386;2024-02-15T09:34:18;9.77;;;8.07;;
7917;SDS011;4004;42.624;23.386;2024-02-15T09:36:44;11.33;;;8.43;;
7917;SDS011;4004;42.624;23.386;2024-02-15T09:39:12;15.50;;;8.43;;
7917;SDS011;4004;42.624;23.386;2024-02-15T09:41:39;11.03;;;7.80;;
7917;SDS011;4004;42.624;23.386;2024-02-15T09:44:08;10.30;;;7.83;;
7917;SDS011;4004;42.624;23.386;2024-02-15T09:46:38;10.50;;;8.27;;
7917;SDS011;4004;42.624;23.386;2024-02-15T09:49:11;19.80;;;8.07;;
7917;SDS011;4004;42.624;23.386;2024-02-15T09:51:39;10.57;;;7.27;;
7917;SDS011;4004;42.624;23.386;2024-02-15T09:54:08;17.20;;;7.77;;
7917;SDS011;4004;42.624;23.386;2024-02-15T09:56:36;17.87;;;7.60;;
7917;SDS011;4004;42.624;23.386;2024-02-15T09:59:03;18.20;;;7.37;;
7917;SDS011;4004;42.624;23.386;2024-02-15T10:01:31;10.17;;;6.90;;
7917;SDS011;4004;42.624;23.386;2024-02-15T10:04:00;13.67;;;7.30;;
7917;SDS011;4004;42.624;23.386;2024-02-15T10:06:33;11.57;;;7.23;;
7917;SDS011;4004;42.624;23.386;2024-02-15T10:11:53;44.83;;;10.20;;
7917;SDS011;4004;42.624;23.386;2024-02-15T10:14:22;13.63;;;7.67;;
7917;SDS011;4004;42.624;23.386;2024-02-15T10:16:49;18.87;;;7.33;;
7917;SDS011;4004;42.624;23.386;2024-02-15T10:19:19;15.53;;;7.90;;
7917;SDS011;4004;42.624;23.386;2024-02-15T10:21:50;26.63;;;8.37;;
7917;SDS011;4004;42.624;23.386;2024-02-15T10:24:22;12.73;;;6.30;;
7917;SDS011;4004;42.624;23.386;2024-02-15T10:26:50;16.90;;;7.57;;
7917;SDS011;4004;42.624;23.386;2024-02-15T10:29:18;10.80;;;7.20;;
7917;SDS011;4004;42.624;23.386;2024-02-15T10:31:52;9.50;;;6.93;;
7917;SDS011;4004;42.624;23.386;2024-02-15T10:34:22;13.57;;;7.53;;
7917;SDS011;4004;42.624;23.386;2024-02-15T10:36:50;8.03;;;5.90;;
7917;SDS011;4004;42.624;23.386;2024-02-15T10:39:17;11.93;;;8.37;;
7917;SDS011;4004;42.624;23.386;2024-02-15T10:41:46;27.77;;;9.73;;
7917;SDS011;4004;42.624;23.386;2024-02-15T10:44:15;17.07;;;7.23;;
7917;SDS011;4004;42.624;23.386;2024-02-15T10:46:44;10.73;;;7.47;;
7917;SDS011;4004;42.624;23.386;2024-02-15T10:49:16;13.63;;;7.07;;
7917;SDS011;4004;42.624;23.386;2024-02-15T10:51:45;14.20;;;7.27;;
7917;SDS011;4004;42.624;23.386;2024-02-15T10:54:22;9.17;;;7.20;;
7917;SDS011;4004;42.624;23.386;2024-02-15T10:57:05;22.47;;;7.67;;
7917;SDS011;4004;42.624;23.386;2024-02-15T10:59:34;12.67;;;6.63;;
7917;SDS011;4004;42.624;23.386;2024-02-15T11:02:04;24.60;;;9.03;;
7917;SDS011;4004;42.624;23.386;2024-02-15T11:04:48;10.97;;;7.47;;
7917;SDS011;4004;42.624;23.386;2024-02-15T11:07:23;10.90;;;6.70;;
7917;SDS011;4004;42.624;23.386;2024-02-15T11:09:51;18.43;;;7.20;;
7917;SDS011;4004;42.624;23.386;2024-02-15T11:12:18;15.27;;;6.70;;
7917;SDS011;4004;42.624;23.386;2024-02-15T11:14:45;19.63;;;8.40;;
7917;SDS011;4004;42.624;23.386;2024-02-15T11:17:12;12.00;;;6.73;;
7917;SDS011;4004;42.624;23.386;2024-02-15T11:23:26;15.03;;;7.40;;
7917;SDS011;4004;42.624;23.386;2024-02-15T11:25:53;13.50;;;6.93;;
7917;SDS011;4004;42.624;23.386;2024-02-15T11:28:37;12.97;;;6.23;;
7917;SDS011;4004;42.624;23.386;2024-02-15T11:40:20;8.07;;;6.53;;
7917;SDS011;4004;42.624;23.386;2024-02-15T11:42:49;7.43;;;5.60;;
7917;SDS011;4004;42.624;23.386;2024-02-15T11:45:16;9.83;;;6.50;;
7917;SDS011;4004;42.624;23.386;2024-02-15T11:47:46;26.33;;;7.63;;
7917;SDS011;4004;42.624;23.386;2024-02-15T11:50:15;10.00;;;6.87;;
7917;SDS011;4004;42.624;23.386;2024-02-15T11:52:43;29.60;;;7.10;;
7917;SDS011;4004;42.624;23.386;2024-02-15T11:55:14;7.17;;;5.87;;
7917;SDS011;4004;42.624;23.386;2024-02-15T11:57:55;40.07;;;8.47;;
7917;SDS011;4004;42.624;23.386;2024-02-15T12:00:28;18.80;;;6.95;;
7917;SDS011;4004;42.624;23.386;2024-02-15T12:03:13;9.63;;;7.13;;
7917;SDS011;4004;42.624;23.386;2024-02-15T12:05:58;16.57;;;7.27;;
7917;SDS011;4004;42.624;23.386;2024-02-15T12:08:43;14.67;;;6.30;;
7917;SDS011;4004;42.624;23.386;2024-02-15T12:11:28;6.87;;;5.93;;
7917;SDS011;4004;42.624;23.386;2024-02-15T12:17:36;18.13;;;7.17;;
7917;SDS011;4004;42.624;23.386;2024-02-15T12:20:20;19.73;;;7.23;;
7917;SDS011;4004;42.624;23.386;2024-02-15T12:22:49;8.20;;;5.80;;
7917;SDS011;4004;42.624;23.386;2024-02-15T12:25:18;8.67;;;6.00;;
7917;SDS011;4004;42.624;23.386;2024-02-15T12:27:46;6.80;;;5.53;;
7917;SDS011;4004;42.624;23.386;2024-02-15T12:30:18;11.93;;;6.27;;
7917;SDS011;4004;42.624;23.386;2024-02-15T12:32:48;9.37;;;5.80;;
7917;SDS011;4004;42.624;23.386;2024-02-15T12:35:16;17.40;;;5.90;;
7917;SDS011;4004;42.624;23.386;2024-02-15T12:37:46;21.57;;;8.10;;
7917;SDS011;4004;42.624;23.386;2024-02-15T12:40:13;12.13;;;6.07;;
7917;SDS011;4004;42.624;23.386;2024-02-15T12:42:42;9.33;;;6.80;;
7917;SDS011;4004;42.624;23.386;2024-02-15T12:45:19;17.53;;;7.07;;
7917;SDS011;4004;42.624;23.386;2024-02-15T12:47:48;11.10;;;5.90;;
7917;SDS011;4004;42.624;23.386;2024-02-15T12:50:17;11.27;;;6.50;;
7917;SDS011;4004;42.624;23.386;2024-02-15T12:52:45;7.10;;;5.23;;
7917;SDS011;4004;42.624;23.386;2024-02-15T12:55:14;10.63;;;5.60;;
7917;SDS011;4004;42.624;23.386;2024-02-15T12:57:43;14.10;;;5.67;;
7917;SDS011;4004;42.624;23.386;2024-02-15T13:00:17;9.17;;;5.97;;
7917;SDS011;4004;42.624;23.386;2024-02-15T13:02:45;14.70;;;5.87;;
7917;SDS011;4004;42.624;23.386;2024-02-15T13:05:15;11.57;;;5.80;;
7917;SDS011;4004;42.624;23.386;2024-02-15T13:07:43;11.73;;;6.10;;
7917;SDS011;4004;42.624;23.386;2024-02-15T13:10:10;5.90;;;5.00;;
7917;SDS011;4004;42.624;23.386;2024-02-15T13:12:40;12.73;;;6.63;;
7917;SDS011;4004;42.624;23.386;2024-02-15T13:15:08;10.60;;;5.90;;
7917;SDS011;4004;42.624;23.386;2024-02-15T13:17:39;17.17;;;6.83;;
7917;SDS011;4004;42.624;23.386;2024-02-15T13:20:07;11.47;;;6.63;;
7917;SDS011;4004;42.624;23.386;2024-02-15T13:22:39;11.27;;;6.40;;
7917;SDS011;4004;42.624;23.386;2024-02-15T13:25:07;17.07;;;6.20;;
7917;SDS011;4004;42.624;23.386;2024-02-15T13:27:34;10.70;;;4.60;;
7917;SDS011;4004;42.624;23.386;2024-02-15T13:30:03;12.63;;;4.83;;
7917;SDS011;4004;42.624;23.386;2024-02-15T13:32:34;6.10;;;5.43;;
7917;SDS011;4004;42.624;23.386;2024-02-15T13:35:03;8.17;;;5.47;;
7917;SDS011;4004;42.624;23.386;2024-02-15T13:37:39;13.60;;;5.20;;
7917;SDS011;4004;42.624;23.386;2024-02-15T13:40:09;24.40;;;5.83;;
7917;SDS011;4004;42.624;23.386;2024-02-15T13:42:40;9.23;;;5.07;;
7917;SDS011;4004;42.624;23.386;2024-02-15T13:45:12;7.00;;;5.37;;
7917;SDS011;4004;42.624;23.386;2024-02-15T13:47:40;9.07;;;5.23;;
7917;SDS011;4004;42.624;23.386;2024-02-15T13:50:07;9.07;;;6.00;;
7917;SDS011;4004;42.624;23.386;2024-02-15T13:52:35;11.53;;;5.67;;
7917;SDS011;4004;42.624;23.386;2024-02-15T13:55:04;11.67;;;6.20;;
7917;SDS011;4004;42.624;23.386;2024-02-15T13:57:31;23.47;;;7.43;;
7917;SDS011;4004;42.624;23.386;2024-02-15T13:59:58;23.10;;;7.03;;
7917;SDS011;4004;42.624;23.386;2024-02-15T14:02:25;9.83;;;5.70;;
7917;SDS011;4004;42.624;23.386;2024-02-15T14:04:51;12.23;;;5.57;;
7917;SDS011;4004;42.624;23.386;2024-02-15T14:07:18;23.67;;;6.13;;
7917;SDS011;4004;42.624;23.386;2024-02-15T14:09:45;17.67;;;5.80;;
7917;SDS011;4004;42.624;23.386;2024-02-15T14:12:13;13.03;;;5.87;;
7917;SDS011;4004;42.624;23.386;2024-02-15T14:14:40;11.87;;;5.40;;
7917;SDS011;4004;42.624;23.386;2024-02-15T14:17:08;8.40;;;5.37;;
7917;SDS011;4004;42.624;23.386;2024-02-15T14:19:35;21.53;;;6.57;;
7917;SDS011;4004;42.624;23.386;2024-02-15T14:22:02;10.07;;;5.20;;
7917;SDS011;4004;42.624;23.386;2024-02-15T14:24:34;5.53;;;4.30;;
7917;SDS011;4004;42.624;23.386;2024-02-15T14:27:03;5.40;;;4.57;;
7917;SDS011;4004;42.624;23.386;2024-02-15T14:29:32;5.53;;;4.70;;
7917;SDS011;4004;42.624;23.386;2024-02-15T14:32:02;6.73;;;4.60;;
7917;SDS011;4004;42.624;23.386;2024-02-15T14:34:48;8.27;;;4.53;;
7917;SDS011;4004;42.624;23.386;2024-02-15T14:37:15;6.77;;;4.40;;
7917;SDS011;4004;42.624;23.386;2024-02-15T14:39:44;7.07;;;5.10;;
7917;SDS011;4004;42.624;23.386;2024-02-15T14:42:11;5.20;;;4.30;;
7917;SDS011;4004;42.624;23.386;2024-02-15T14:44:40;4.87;;;4.37;;
7917;SDS011;4004;42.624;23.386;2024-02-15T14:47:08;9.57;;;4.50;;
7917;SDS011;4004;42.624;23.386;2024-02-15T14:49:35;12.57;;;4.80;;
7917;SDS011;4004;42.624;23.386;2024-02-15T14:52:02;12.73;;;5.43;;
7917;SDS011;4004;42.624;23.386;2024-02-15T14:54:29;7.13;;;4.60;;
7917;SDS011;4004;42.624;23.386;2024-02-15T14:56:58;11.67;;;5.80;;
7917;SDS011;4004;42.624;23.386;2024-02-15T14:59:25;7.63;;;5.20;;
7917;SDS011;4004;42.624;23.386;2024-02-15T15:01:54;5.27;;;4.63;;
7917;SDS011;4004;42.624;23.386;2024-02-15T15:04:22;7.40;;;4.77;;
7917;SDS011;4004;42.624;23.386;2024-02-15T15:06:51;5.43;;;4.93;;
7917;SDS011;4004;42.624;23.386;2024-02-15T15:09:35;14.80;;;5.40;;
7917;SDS011;4004;42.624;23.386;2024-02-15T15:12:31;9.63;;;5.00;;
7917;SDS011;4004;42.624;23.386;2024-02-15T15:15:05;7.10;;;5.20;;
7917;SDS011;4004;42.624;23.386;2024-02-15T15:17:34;12.17;;;5.50;;
7917;SDS011;4004;42.624;23.386;2024-02-15T15:20:04;12.67;;;6.37;;
7917;SDS011;4004;42.624;23.386;2024-02-15T15:22:33;13.20;;;6.50;;
7917;SDS011;4004;42.624;23.386;2024-02-15T15:25:00;10.20;;;5.77;;